sensor_id;sensor_type;location;lat;lon;timestamp;P1;durP1;ratioP1;P2;durP2;ratioP2
14316;SDS011;7242;50.858;6.586;2023-02-28T00:02:00;4.13;;;2.53;;
14316;SDS011;7242;50.858;6.586;2023-02-28T00:05:01;3.27;;;2.40;;
14316;SDS011;7242;50.858;6.586;2023-02-28T00:08:03;3.23;;;2.37;;
14316;SDS011;7242;50.858;6.586;2023-02-28T00:11:04;4.37;;;2.70;;
14316;SDS011;7242;50.858;6.586;2023-02-28T00:14:06;5.60;;;2.53;;
14316;SDS011;7242;50.858;6.586;2023-02-28T00:17:07;3.10;;;2.43;;
14316;SDS011;7242;50.858;6.586;2023-02-28T00:20:08;3.23;;;2.50;;
14316;SDS011;7242;50.858;6.586;2023-02-28T00:23:10;5.13;;;2.63;;
14316;SDS011;7242;50.858;6.586;2023-02-28T00:26:10;3.67;;;2.57;;
14316;SDS011;7242;50.858;6.586;2023-02-28T00:29:13;3.60;;;2.67;;
14316;SDS011;7242;50.858;6.586;2023-02-28T00:32:14;4.57;;;2.60;;
14316;SDS011;7242;50.858;6.586;2023-02-28T00:35:14;3.47;;;2.70;;
14316;SDS011;7242;50.858;6.586;2023-02-28T00:38:15;3.20;;;2.57;;
14316;SDS011;7242;50.858;6.586;2023-02-28T00:41:16;7.57;;;2.50;;
14316;SDS011;7242;50.858;6.586;2023-02-28T00:44:17;5.70;;;3.07;;
14316;SDS011;7242;50.858;6.586;2023-02-28T00:47:17;4.97;;;2.80;;
14316;SDS011;7242;50.858;6.586;2023-02-28T00:50:18;3.30;;;2.50;;
14316;SDS011;7242;50.858;6.586;2023-02-28T00:53:20;5.20;;;2.80;;
14316;SDS011;7242;50.858;6.586;2023-02-28T00:56:22;5.50;;;2.77;;
14316;SDS011;7242;50.858;6.586;2023-02-28T00:59:22;3.00;;;2.47;;
14316;SDS011;7242;50.858;6.586;2023-02-28T01:02:23;4.93;;;2.60;;
14316;SDS011;7242;50.858;6.586;2023-02-28T01:05:26;4.10;;;2.60;;
14316;SDS011;7242;50.858;6.586;2023-02-28T01:08:27;4.07;;;2.50;;
14316;SDS011;7242;50.858;6.586;2023-02-28T01:11:28;4.27;;;2.40;;
14316;SDS011;7242;50.858;6.586;2023-02-28T01:14:28;3.30;;;2.33;;
14316;SDS011;7242;50.858;6.586;2023-02-28T01:17:30;3.40;;;2.50;;
14316;SDS011;7242;50.858;6.586;2023-02-28T01:20:36;4.63;;;2.70;;
14316;SDS011;7242;50.858;6.586;2023-02-28T01:23:38;3.80;;;2.33;;
14316;SDS011;7242;50.858;6.586;2023-02-28T01:26:39;3.37;;;2.30;;
14316;SDS011;7242;50.858;6.586;2023-02-28T01:29:41;4.00;;;2.30;;
14316;SDS011;7242;50.858;6.586;2023-02-28T01:32:43;3.47;;;2.33;;
14316;SDS011;7242;50.858;6.586;2023-02-28T01:35:44;3.00;;;2.33;;
14316;SDS011;7242;50.858;6.586;2023-02-28T01:38:45;2.67;;;2.30;;
14316;SDS011;7242;50.858;6.586;2023-02-28T01:41:47;3.27;;;2.40;;
14316;SDS011;7242;50.858;6.586;2023-02-28T01:44:55;3.27;;;2.27;;
14316;SDS011;7242;50.858;6.586;2023-02-28T01:48:05;3.27;;;2.13;;
14316;SDS011;7242;50.858;6.586;2023-02-28T01:51:10;3.20;;;2.27;;
14316;SDS011;7242;50.858;6.586;2023-02-28T01:54:31;4.43;;;2.70;;
14316;SDS011;7242;50.858;6.586;2023-02-28T01:57:36;3.57;;;2.50;;
14316;SDS011;7242;50.858;6.586;2023-02-28T02:00:41;5.40;;;2.70;;
14316;SDS011;7242;50.858;6.586;2023-02-28T02:03:44;3.40;;;2.30;;
14316;SDS011;7242;50.858;6.586;2023-02-28T02:06:45;3.03;;;2.00;;
14316;SDS011;7242;50.858;6.586;2023-02-28T02:09:49;3.20;;;2.47;;
14316;SDS011;7242;50.858;6.586;2023-02-28T02:13:12;2.77;;;2.17;;
14316;SDS011;7242;50.858;6.586;2023-02-28T02:19:57;3.13;;;2.27;;
14316;SDS011;7242;50.858;6.586;2023-02-28T02:26:50;3.10;;;2.27;;
14316;SDS011;7242;50.858;6.586;2023-02-28T02:36:33;2.80;;;2.27;;
14316;SDS011;7242;50.858;6.586;2023-02-28T02:39:50;3.17;;;2.27;;
14316;SDS011;7242;50.858;6.586;2023-02-28T02:43:01;2.50;;;2.30;;
14316;SDS011;7242;50.858;6.586;2023-02-28T02:46:10;2.93;;;2.37;;
14316;SDS011;7242;50.858;6.586;2023-02-28T02:49:23;3.00;;;2.10;;
14316;SDS011;7242;50.858;6.586;2023-02-28T02:52:39;3.80;;;2.40;;
14316;SDS011;7242;50.858;6.586;2023-02-28T02:55:44;3.87;;;2.40;;
14316;SDS011;7242;50.858;6.586;2023-02-28T02:58:54;3.33;;;2.30;;
14316;SDS011;7242;50.858;6.586;2023-02-28T03:02:01;3.70;;;2.20;;
14316;SDS011;7242;50.858;6.586;2023-02-28T03:05:07;3.73;;;2.40;;
14316;SDS011;7242;50.858;6.586;2023-02-28T03:08:14;3.27;;;2.40;;
14316;SDS011;7242;50.858;6.586;2023-02-28T03:11:15;3.67;;;2.43;;
14316;SDS011;7242;50.858;6.586;2023-02-28T03:21:02;3.23;;;2.40;;
14316;SDS011;7242;50.858;6.586;2023-02-28T03:27:09;3.40;;;2.40;;
14316;SDS011;7242;50.858;6.586;2023-02-28T03:36:25;3.83;;;2.33;;
14316;SDS011;7242;50.858;6.586;2023-02-28T03:39:37;3.83;;;2.90;;
14316;SDS011;7242;50.858;6.586;2023-02-28T03:42:43;2.97;;;2.30;;
14316;SDS011;7242;50.858;6.586;2023-02-28T03:45:46;3.63;;;2.30;;
14316;SDS011;7242;50.858;6.586;2023-02-28T03:52:27;3.40;;;2.33;;
14316;SDS011;7242;50.858;6.586;2023-02-28T03:55:32;3.40;;;2.30;;
14316;SDS011;7242;50.858;6.586;2023-02-28T03:58:43;2.83;;;2.27;;
14316;SDS011;7242;50.858;6.586;2023-02-28T04:02:05;3.87;;;2.20;;
14316;SDS011;7242;50.858;6.586;2023-02-28T04:05:06;3.47;;;2.47;;
14316;SDS011;7242;50.858;6.586;2023-02-28T04:08:08;2.43;;;2.03;;
14316;SDS011;7242;50.858;6.586;2023-02-28T04:11:54;2.77;;;2.20;;
14316;SDS011;7242;50.858;6.586;2023-02-28T04:14:52;2.43;;;2.13;;
14316;SDS011;7242;50.858;6.586;2023-02-28T04:17:53;4.23;;;2.37;;
14316;SDS011;7242;50.858;6.586;2023-02-28T04:20:53;3.93;;;2.30;;
14316;SDS011;7242;50.858;6.586;2023-02-28T04:23:54;2.53;;;2.33;;
14316;SDS011;7242;50.858;6.586;2023-02-28T04:26:56;2.50;;;2.13;;
14316;SDS011;7242;50.858;6.586;2023-02-28T04:29:58;3.73;;;2.20;;
14316;SDS011;7242;50.858;6.586;2023-02-28T04:33:00;2.70;;;2.10;;
14316;SDS011;7242;50.858;6.586;2023-02-28T04:36:05;2.30;;;2.10;;
14316;SDS011;7242;50.858;6.586;2023-02-28T04:39:08;2.57;;;2.10;;
14316;SDS011;7242;50.858;6.586;2023-02-28T04:42:10;3.43;;;2.20;;
14316;SDS011;7242;50.858;6.586;2023-02-28T04:45:11;3.20;;;2.10;;
14316;SDS011;7242;50.858;6.586;2023-02-28T04:48:12;2.80;;;2.17;;
14316;SDS011;7242;50.858;6.586;2023-02-28T04:51:13;4.33;;;2.50;;
14316;SDS011;7242;50.858;6.586;2023-02-28T04:54:15;4.53;;;2.57;;
14316;SDS011;7242;50.858;6.586;2023-02-28T04:57:18;3.53;;;2.77;;
14316;SDS011;7242;50.858;6.586;2023-02-28T05:00:18;2.90;;;2.60;;
14316;SDS011;7242;50.858;6.586;2023-02-28T05:03:20;5.10;;;3.27;;
14316;SDS011;7242;50.858;6.586;2023-02-28T05:06:23;3.57;;;3.10;;
14316;SDS011;7242;50.858;6.586;2023-02-28T05:09:25;3.93;;;2.73;;
14316;SDS011;7242;50.858;6.586;2023-02-28T05:12:26;4.50;;;3.20;;
14316;SDS011;7242;50.858;6.586;2023-02-28T05:15:27;3.70;;;3.10;;
14316;SDS011;7242;50.858;6.586;2023-02-28T05:18:28;3.83;;;2.90;;
14316;SDS011;7242;50.858;6.586;2023-02-28T05:21:30;4.87;;;2.90;;
14316;SDS011;7242;50.858;6.586;2023-02-28T05:24:38;5.00;;;3.07;;
14316;SDS011;7242;50.858;6.586;2023-02-28T05:27:39;3.97;;;2.90;;
14316;SDS011;7242;50.858;6.586;2023-02-28T05:30:40;3.70;;;3.03;;
14316;SDS011;7242;50.858;6.586;2023-02-28T05:33:41;5.00;;;3.00;;
14316;SDS011;7242;50.858;6.586;2023-02-28T05:36:42;4.27;;;3.30;;
14316;SDS011;7242;50.858;6.586;2023-02-28T05:39:42;4.30;;;3.10;;
14316;SDS011;7242;50.858;6.586;2023-02-28T05:42:43;3.90;;;3.03;;
14316;SDS011;7242;50.858;6.586;2023-02-28T05:45:45;3.37;;;3.03;;
14316;SDS011;7242;50.858;6.586;2023-02-28T05:48:46;4.83;;;3.23;;
14316;SDS011;7242;50.858;6.586;2023-02-28T05:51:48;4.90;;;3.10;;
14316;SDS011;7242;50.858;6.586;2023-02-28T05:54:48;6.67;;;4.10;;
14316;SDS011;7242;50.858;6.586;2023-02-28T05:57:49;7.73;;;4.07;;
14316;SDS011;7242;50.858;6.586;2023-02-28T06:00:50;5.93;;;3.90;;
14316;SDS011;7242;50.858;6.586;2023-02-28T06:03:51;5.57;;;3.80;;
14316;SDS011;7242;50.858;6.586;2023-02-28T06:06:52;7.70;;;4.20;;
14316;SDS011;7242;50.858;6.586;2023-02-28T06:09:53;7.13;;;5.07;;
14316;SDS011;7242;50.858;6.586;2023-02-28T06:12:53;7.40;;;5.17;;
14316;SDS011;7242;50.858;6.586;2023-02-28T06:15:54;4.63;;;3.50;;
14316;SDS011;7242;50.858;6.586;2023-02-28T06:18:59;4.07;;;3.37;;
14316;SDS011;7242;50.858;6.586;2023-02-28T06:22:02;5.97;;;3.30;;
14316;SDS011;7242;50.858;6.586;2023-02-28T06:25:03;4.80;;;3.17;;
14316;SDS011;7242;50.858;6.586;2023-02-28T06:28:05;3.97;;;3.03;;
14316;SDS011;7242;50.858;6.586;2023-02-28T06:31:09;4.47;;;3.20;;
14316;SDS011;7242;50.858;6.586;2023-02-28T06:34:12;5.80;;;3.47;;
14316;SDS011;7242;50.858;6.586;2023-02-28T06:37:13;5.57;;;3.80;;
14316;SDS011;7242;50.858;6.586;2023-02-28T06:40:14;4.63;;;3.40;;
14316;SDS011;7242;50.858;6.586;2023-02-28T06:43:15;4.43;;;3.93;;
14316;SDS011;7242;50.858;6.586;2023-02-28T06:46:16;5.70;;;4.43;;
14316;SDS011;7242;50.858;6.586;2023-02-28T06:49:17;6.00;;;4.20;;
14316;SDS011;7242;50.858;6.586;2023-02-28T06:52:17;5.40;;;3.73;;
14316;SDS011;7242;50.858;6.586;2023-02-28T06:55:18;5.17;;;3.10;;
14316;SDS011;7242;50.858;6.586;2023-02-28T06:58:19;6.17;;;2.80;;
14316;SDS011;7242;50.858;6.586;2023-02-28T07:01:20;3.53;;;2.67;;
14316;SDS011;7242;50.858;6.586;2023-02-28T07:04:24;3.47;;;2.50;;
14316;SDS011;7242;50.858;6.586;2023-02-28T07:07:25;3.83;;;2.33;;
14316;SDS011;7242;50.858;6.586;2023-02-28T07:10:26;3.30;;;2.80;;
14316;SDS011;7242;50.858;6.586;2023-02-28T07:13:27;3.43;;;2.60;;
14316;SDS011;7242;50.858;6.586;2023-02-28T07:16:28;4.37;;;3.40;;
14316;SDS011;7242;50.858;6.586;2023-02-28T07:19:29;6.50;;;3.50;;
14316;SDS011;7242;50.858;6.586;2023-02-28T07:22:29;3.60;;;3.17;;
14316;SDS011;7242;50.858;6.586;2023-02-28T07:25:30;2.70;;;2.50;;
14316;SDS011;7242;50.858;6.586;2023-02-28T07:28:31;5.03;;;3.00;;
14316;SDS011;7242;50.858;6.586;2023-02-28T07:31:32;3.20;;;2.80;;
14316;SDS011;7242;50.858;6.586;2023-02-28T07:34:33;4.93;;;3.00;;
14316;SDS011;7242;50.858;6.586;2023-02-28T07:37:34;2.50;;;2.30;;
14316;SDS011;7242;50.858;6.586;2023-02-28T07:40:38;4.43;;;2.40;;
14316;SDS011;7242;50.858;6.586;2023-02-28T07:43:39;3.70;;;2.13;;
14316;SDS011;7242;50.858;6.586;2023-02-28T07:46:40;5.07;;;2.30;;
14316;SDS011;7242;50.858;6.586;2023-02-28T07:49:41;3.53;;;2.07;;
14316;SDS011;7242;50.858;6.586;2023-02-28T07:52:42;3.63;;;2.30;;
14316;SDS011;7242;50.858;6.586;2023-02-28T07:55:42;3.03;;;2.30;;
14316;SDS011;7242;50.858;6.586;2023-02-28T07:58:43;3.03;;;2.30;;
14316;SDS011;7242;50.858;6.586;2023-02-28T08:01:44;3.00;;;2.23;;
14316;SDS011;7242;50.858;6.586;2023-02-28T08:04:46;3.70;;;2.63;;
14316;SDS011;7242;50.858;6.586;2023-02-28T08:07:48;3.10;;;2.50;;
14316;SDS011;7242;50.858;6.586;2023-02-28T08:10:49;3.60;;;2.37;;
14316;SDS011;7242;50.858;6.586;2023-02-28T08:13:50;5.03;;;3.00;;
14316;SDS011;7242;50.858;6.586;2023-02-28T08:16:51;4.07;;;2.80;;
14316;SDS011;7242;50.858;6.586;2023-02-28T08:19:52;4.23;;;3.07;;
14316;SDS011;7242;50.858;6.586;2023-02-28T08:22:53;3.43;;;2.30;;
14316;SDS011;7242;50.858;6.586;2023-02-28T08:25:54;2.77;;;2.00;;
14316;SDS011;7242;50.858;6.586;2023-02-28T08:28:55;2.07;;;1.83;;
14316;SDS011;7242;50.858;6.586;2023-02-28T08:31:56;2.30;;;1.90;;
14316;SDS011;7242;50.858;6.586;2023-02-28T08:34:58;3.43;;;2.63;;
14316;SDS011;7242;50.858;6.586;2023-02-28T08:37:59;3.47;;;2.33;;
14316;SDS011;7242;50.858;6.586;2023-02-28T08:41:01;3.30;;;1.90;;
14316;SDS011;7242;50.858;6.586;2023-02-28T08:44:03;2.73;;;2.23;;
14316;SDS011;7242;50.858;6.586;2023-02-28T08:47:04;4.17;;;1.97;;
14316;SDS011;7242;50.858;6.586;2023-02-28T08:50:05;3.90;;;2.00;;
14316;SDS011;7242;50.858;6.586;2023-02-28T08:53:07;2.23;;;1.80;;
14316;SDS011;7242;50.858;6.586;2023-02-28T08:56:08;2.10;;;1.80;;
14316;SDS011;7242;50.858;6.586;2023-02-28T08:59:10;2.20;;;1.67;;
14316;SDS011;7242;50.858;6.586;2023-02-28T09:02:12;3.57;;;1.70;;
14316;SDS011;7242;50.858;6.586;2023-02-28T09:05:14;2.57;;;1.70;;
14316;SDS011;7242;50.858;6.586;2023-02-28T09:08:15;2.80;;;2.00;;
14316;SDS011;7242;50.858;6.586;2023-02-28T09:11:16;2.77;;;1.70;;
14316;SDS011;7242;50.858;6.586;2023-02-28T09:14:18;1.93;;;1.70;;
14316;SDS011;7242;50.858;6.586;2023-02-28T09:17:20;1.90;;;1.50;;
14316;SDS011;7242;50.858;6.586;2023-02-28T09:20:21;2.33;;;1.37;;
14316;SDS011;7242;50.858;6.586;2023-02-28T09:23:22;2.07;;;1.50;;
14316;SDS011;7242;50.858;6.586;2023-02-28T09:26:24;1.97;;;1.53;;
14316;SDS011;7242;50.858;6.586;2023-02-28T09:29:26;2.13;;;1.60;;
14316;SDS011;7242;50.858;6.586;2023-02-28T09:32:27;2.07;;;1.50;;
14316;SDS011;7242;50.858;6.586;2023-02-28T09:35:28;1.70;;;1.50;;
14316;SDS011;7242;50.858;6.586;2023-02-28T09:38:30;1.63;;;1.40;;
14316;SDS011;7242;50.858;6.586;2023-02-28T09:41:37;1.53;;;1.37;;
14316;SDS011;7242;50.858;6.586;2023-02-28T09:44:47;1.93;;;1.63;;
14316;SDS011;7242;50.858;6.586;2023-02-28T09:47:50;1.40;;;1.30;;
14316;SDS011;7242;50.858;6.586;2023-02-28T09:51:02;1.63;;;1.53;;
14316;SDS011;7242;50.858;6.586;2023-02-28T09:54:04;2.03;;;1.47;;
14316;SDS011;7242;50.858;6.586;2023-02-28T09:57:07;1.63;;;1.43;;
14316;SDS011;7242;50.858;6.586;2023-02-28T10:06:49;2.40;;;1.20;;
14316;SDS011;7242;50.858;6.586;2023-02-28T10:09:52;1.50;;;1.40;;
14316;SDS011;7242;50.858;6.586;2023-02-28T10:12:56;1.67;;;1.57;;
14316;SDS011;7242;50.858;6.586;2023-02-28T10:16:05;1.70;;;1.60;;
14316;SDS011;7242;50.858;6.586;2023-02-28T10:19:28;3.57;;;1.70;;
14316;SDS011;7242;50.858;6.586;2023-02-28T10:23:03;2.30;;;1.70;;
14316;SDS011;7242;50.858;6.586;2023-02-28T10:26:17;1.57;;;1.47;;
14316;SDS011;7242;50.858;6.586;2023-02-28T10:29:18;2.27;;;1.50;;
14316;SDS011;7242;50.858;6.586;2023-02-28T10:32:20;2.63;;;2.00;;
14316;SDS011;7242;50.858;6.586;2023-02-28T10:35:24;4.53;;;2.63;;
14316;SDS011;7242;50.858;6.586;2023-02-28T10:38:33;3.37;;;1.63;;
14316;SDS011;7242;50.858;6.586;2023-02-28T10:41:36;2.03;;;1.60;;
14316;SDS011;7242;50.858;6.586;2023-02-28T10:44:43;4.37;;;2.20;;
14316;SDS011;7242;50.858;6.586;2023-02-28T10:47:52;1.97;;;1.63;;
14316;SDS011;7242;50.858;6.586;2023-02-28T10:51:01;2.13;;;1.63;;
14316;SDS011;7242;50.858;6.586;2023-02-28T10:54:04;2.57;;;1.73;;
14316;SDS011;7242;50.858;6.586;2023-02-28T10:57:06;1.97;;;1.60;;
14316;SDS011;7242;50.858;6.586;2023-02-28T11:00:16;2.00;;;1.83;;
14316;SDS011;7242;50.858;6.586;2023-02-28T11:03:23;2.10;;;1.90;;
14316;SDS011;7242;50.858;6.586;2023-02-28T11:06:32;2.60;;;1.90;;
14316;SDS011;7242;50.858;6.586;2023-02-28T11:09:35;3.43;;;1.80;;
14316;SDS011;7242;50.858;6.586;2023-02-28T11:12:39;4.13;;;2.67;;
14316;SDS011;7242;50.858;6.586;2023-02-28T11:15:42;5.50;;;2.37;;
14316;SDS011;7242;50.858;6.586;2023-02-28T11:18:55;2.70;;;1.73;;
14316;SDS011;7242;50.858;6.586;2023-02-28T11:21:57;2.73;;;2.30;;
14316;SDS011;7242;50.858;6.586;2023-02-28T11:25:01;3.87;;;2.00;;
14316;SDS011;7242;50.858;6.586;2023-02-28T11:28:22;2.47;;;1.90;;
14316;SDS011;7242;50.858;6.586;2023-02-28T11:31:27;2.27;;;1.80;;
14316;SDS011;7242;50.858;6.586;2023-02-28T11:34:30;2.97;;;2.63;;
14316;SDS011;7242;50.858;6.586;2023-02-28T11:37:31;2.60;;;2.10;;
14316;SDS011;7242;50.858;6.586;2023-02-28T11:40:56;2.63;;;2.20;;
14316;SDS011;7242;50.858;6.586;2023-02-28T11:44:41;2.57;;;2.17;;
14316;SDS011;7242;50.858;6.586;2023-02-28T11:47:43;3.10;;;2.27;;
14316;SDS011;7242;50.858;6.586;2023-02-28T11:57:59;1.90;;;1.70;;
14316;SDS011;7242;50.858;6.586;2023-02-28T12:07:19;2.77;;;2.20;;
14316;SDS011;7242;50.858;6.586;2023-02-28T12:10:29;2.93;;;2.00;;
14316;SDS011;7242;50.858;6.586;2023-02-28T12:13:46;3.00;;;2.13;;
14316;SDS011;7242;50.858;6.586;2023-02-28T12:20:46;3.47;;;1.90;;
14316;SDS011;7242;50.858;6.586;2023-02-28T12:27:17;2.57;;;2.03;;
14316;SDS011;7242;50.858;6.586;2023-02-28T12:30:22;3.10;;;2.00;;
14316;SDS011;7242;50.858;6.586;2023-02-28T12:33:28;5.07;;;2.20;;
14316;SDS011;7242;50.858;6.586;2023-02-28T12:36:34;2.37;;;2.17;;
14316;SDS011;7242;50.858;6.586;2023-02-28T12:39:38;3.20;;;2.40;;
14316;SDS011;7242;50.858;6.586;2023-02-28T12:42:46;2.53;;;2.13;;
14316;SDS011;7242;50.858;6.586;2023-02-28T12:45:57;2.87;;;2.10;;
14316;SDS011;7242;50.858;6.586;2023-02-28T12:49:04;2.57;;;2.30;;
14316;SDS011;7242;50.858;6.586;2023-02-28T12:52:08;2.50;;;2.30;;
14316;SDS011;7242;50.858;6.586;2023-02-28T12:55:48;2.20;;;2.00;;
14316;SDS011;7242;50.858;6.586;2023-02-28T12:58:54;2.50;;;2.30;;
14316;SDS011;7242;50.858;6.586;2023-02-28T13:11:45;3.07;;;2.77;;
14316;SDS011;7242;50.858;6.586;2023-02-28T13:14:51;2.87;;;2.27;;
14316;SDS011;7242;50.858;6.586;2023-02-28T13:18:04;2.50;;;2.30;;
14316;SDS011;7242;50.858;6.586;2023-02-28T13:21:06;4.93;;;2.20;;
14316;SDS011;7242;50.858;6.586;2023-02-28T13:24:08;3.87;;;2.60;;
14316;SDS011;7242;50.858;6.586;2023-02-28T13:27:10;2.27;;;2.07;;
14316;SDS011;7242;50.858;6.586;2023-02-28T13:40:32;2.57;;;2.37;;
14316;SDS011;7242;50.858;6.586;2023-02-28T13:47:20;2.40;;;2.20;;
14316;SDS011;7242;50.858;6.586;2023-02-28T13:53:48;2.50;;;2.30;;
14316;SDS011;7242;50.858;6.586;2023-02-28T14:06:52;2.80;;;2.60;;
14316;SDS011;7242;50.858;6.586;2023-02-28T14:09:59;2.40;;;2.20;;
14316;SDS011;7242;50.858;6.586;2023-02-28T14:16:41;2.80;;;2.53;;
14316;SDS011;7242;50.858;6.586;2023-02-28T14:19:45;2.70;;;2.50;;
14316;SDS011;7242;50.858;6.586;2023-02-28T14:29:19;3.77;;;2.53;;
14316;SDS011;7242;50.858;6.586;2023-02-28T14:32:28;2.60;;;2.40;;
14316;SDS011;7242;50.858;6.586;2023-02-28T14:42:27;5.23;;;2.60;;
14316;SDS011;7242;50.858;6.586;2023-02-28T14:45:30;3.67;;;2.60;;
14316;SDS011;7242;50.858;6.586;2023-02-28T14:48:34;2.77;;;2.53;;
14316;SDS011;7242;50.858;6.586;2023-02-28T14:51:36;2.80;;;2.50;;
14316;SDS011;7242;50.858;6.586;2023-02-28T14:54:37;2.83;;;2.53;;
14316;SDS011;7242;50.858;6.586;2023-02-28T14:57:42;3.17;;;2.70;;
14316;SDS011;7242;50.858;6.586;2023-02-28T15:00:52;3.13;;;2.60;;
14316;SDS011;7242;50.858;6.586;2023-02-28T15:03:59;3.40;;;2.67;;
14316;SDS011;7242;50.858;6.586;2023-02-28T15:07:09;4.57;;;2.70;;
14316;SDS011;7242;50.858;6.586;2023-02-28T15:10:23;6.23;;;3.00;;
14316;SDS011;7242;50.858;6.586;2023-02-28T15:13:45;4.13;;;2.80;;
14316;SDS011;7242;50.858;6.586;2023-02-28T15:16:51;3.10;;;2.70;;
14316;SDS011;7242;50.858;6.586;2023-02-28T15:19:57;3.50;;;2.67;;
14316;SDS011;7242;50.858;6.586;2023-02-28T15:22:58;3.13;;;2.80;;
14316;SDS011;7242;50.858;6.586;2023-02-28T15:25:59;3.63;;;3.00;;
14316;SDS011;7242;50.858;6.586;2023-02-28T15:29:02;3.80;;;2.87;;
14316;SDS011;7242;50.858;6.586;2023-02-28T15:32:06;3.20;;;2.80;;
14316;SDS011;7242;50.858;6.586;2023-02-28T15:38:24;3.43;;;2.80;;
14316;SDS011;7242;50.858;6.586;2023-02-28T15:41:27;3.03;;;2.73;;
14316;SDS011;7242;50.858;6.586;2023-02-28T15:44:38;3.57;;;2.83;;
14316;SDS011;7242;50.858;6.586;2023-02-28T15:47:39;3.00;;;2.57;;
14316;SDS011;7242;50.858;6.586;2023-02-28T15:50:40;5.60;;;4.17;;
14316;SDS011;7242;50.858;6.586;2023-02-28T15:53:51;9.60;;;4.63;;
14316;SDS011;7242;50.858;6.586;2023-02-28T15:57:06;3.10;;;2.80;;
14316;SDS011;7242;50.858;6.586;2023-02-28T16:00:14;9.17;;;4.60;;
14316;SDS011;7242;50.858;6.586;2023-02-28T16:03:32;6.13;;;4.03;;
14316;SDS011;7242;50.858;6.586;2023-02-28T16:06:44;5.37;;;3.07;;
14316;SDS011;7242;50.858;6.586;2023-02-28T16:09:46;3.63;;;3.10;;
14316;SDS011;7242;50.858;6.586;2023-02-28T16:12:48;4.97;;;3.20;;
14316;SDS011;7242;50.858;6.586;2023-02-28T16:15:48;3.00;;;2.80;;
14316;SDS011;7242;50.858;6.586;2023-02-28T16:18:51;5.03;;;3.30;;
14316;SDS011;7242;50.858;6.586;2023-02-28T16:21:52;3.60;;;3.00;;
14316;SDS011;7242;50.858;6.586;2023-02-28T16:24:53;3.50;;;3.20;;
14316;SDS011;7242;50.858;6.586;2023-02-28T16:27:54;5.17;;;2.90;;
14316;SDS011;7242;50.858;6.586;2023-02-28T16:30:57;4.20;;;3.40;;
14316;SDS011;7242;50.858;6.586;2023-02-28T16:34:02;7.10;;;3.10;;
14316;SDS011;7242;50.858;6.586;2023-02-28T16:37:07;4.23;;;3.10;;
14316;SDS011;7242;50.858;6.586;2023-02-28T16:40:15;3.60;;;2.77;;
14316;SDS011;7242;50.858;6.586;2023-02-28T16:43:17;2.90;;;2.67;;
14316;SDS011;7242;50.858;6.586;2023-02-28T16:46:21;4.17;;;3.00;;
14316;SDS011;7242;50.858;6.586;2023-02-28T16:49:22;3.43;;;2.60;;
14316;SDS011;7242;50.858;6.586;2023-02-28T16:52:23;3.77;;;2.90;;
14316;SDS011;7242;50.858;6.586;2023-02-28T16:55:24;3.17;;;2.87;;
14316;SDS011;7242;50.858;6.586;2023-02-28T16:58:26;3.67;;;3.17;;
14316;SDS011;7242;50.858;6.586;2023-02-28T17:01:27;3.40;;;3.10;;
14316;SDS011;7242;50.858;6.586;2023-02-28T17:04:28;3.30;;;2.80;;
14316;SDS011;7242;50.858;6.586;2023-02-28T17:07:29;11.57;;;7.00;;
14316;SDS011;7242;50.858;6.586;2023-02-28T17:10:30;11.40;;;7.50;;
14316;SDS011;7242;50.858;6.586;2023-02-28T17:13:31;11.90;;;8.17;;
14316;SDS011;7242;50.858;6.586;2023-02-28T17:16:34;4.77;;;3.47;;
14316;SDS011;7242;50.858;6.586;2023-02-28T17:19:39;3.63;;;3.30;;
14316;SDS011;7242;50.858;6.586;2023-02-28T17:22:43;5.20;;;4.70;;
14316;SDS011;7242;50.858;6.586;2023-02-28T17:25:44;7.70;;;6.90;;
14316;SDS011;7242;50.858;6.586;2023-02-28T17:28:53;7.43;;;6.70;;
14316;SDS011;7242;50.858;6.586;2023-02-28T17:31:58;5.57;;;4.20;;
14316;SDS011;7242;50.858;6.586;2023-02-28T17:35:02;5.10;;;4.27;;
14316;SDS011;7242;50.858;6.586;2023-02-28T17:38:03;4.20;;;3.70;;
14316;SDS011;7242;50.858;6.586;2023-02-28T17:41:03;4.33;;;3.93;;
14316;SDS011;7242;50.858;6.586;2023-02-28T17:44:04;4.13;;;3.70;;
14316;SDS011;7242;50.858;6.586;2023-02-28T17:47:05;9.17;;;6.90;;
14316;SDS011;7242;50.858;6.586;2023-02-28T17:50:06;6.87;;;6.17;;
14316;SDS011;7242;50.858;6.586;2023-02-28T17:53:11;7.73;;;6.37;;
14316;SDS011;7242;50.858;6.586;2023-02-28T17:56:13;7.80;;;7.00;;
14316;SDS011;7242;50.858;6.586;2023-02-28T17:59:15;8.50;;;6.97;;
14316;SDS011;7242;50.858;6.586;2023-02-28T18:02:16;9.20;;;7.60;;
14316;SDS011;7242;50.858;6.586;2023-02-28T18:05:17;6.20;;;4.90;;
14316;SDS011;7242;50.858;6.586;2023-02-28T18:08:18;4.23;;;3.77;;
14316;SDS011;7242;50.858;6.586;2023-02-28T18:11:20;4.30;;;3.60;;
14316;SDS011;7242;50.858;6.586;2023-02-28T18:14:24;4.37;;;3.43;;
14316;SDS011;7242;50.858;6.586;2023-02-28T18:17:25;4.97;;;3.50;;
14316;SDS011;7242;50.858;6.586;2023-02-28T18:20:26;5.77;;;4.30;;
14316;SDS011;7242;50.858;6.586;2023-02-28T18:23:28;4.93;;;3.60;;
14316;SDS011;7242;50.858;6.586;2023-02-28T18:26:29;4.53;;;3.50;;
14316;SDS011;7242;50.858;6.586;2023-02-28T18:29:30;4.63;;;3.70;;
14316;SDS011;7242;50.858;6.586;2023-02-28T18:32:32;5.53;;;4.30;;
14316;SDS011;7242;50.858;6.586;2023-02-28T18:35:33;4.10;;;3.50;;
14316;SDS011;7242;50.858;6.586;2023-02-28T18:38:33;3.93;;;3.53;;
14316;SDS011;7242;50.858;6.586;2023-02-28T18:41:35;4.00;;;3.60;;
14316;SDS011;7242;50.858;6.586;2023-02-28T18:44:36;4.67;;;3.93;;
14316;SDS011;7242;50.858;6.586;2023-02-28T18:47:37;4.47;;;3.77;;
14316;SDS011;7242;50.858;6.586;2023-02-28T18:50:38;5.37;;;4.23;;
14316;SDS011;7242;50.858;6.586;2023-02-28T18:53:39;6.40;;;3.97;;
14316;SDS011;7242;50.858;6.586;2023-02-28T18:56:41;5.60;;;4.63;;
14316;SDS011;7242;50.858;6.586;2023-02-28T18:59:42;7.40;;;4.70;;
14316;SDS011;7242;50.858;6.586;2023-02-28T19:02:43;6.77;;;4.63;;
14316;SDS011;7242;50.858;6.586;2023-02-28T19:05:43;5.10;;;3.97;;
14316;SDS011;7242;50.858;6.586;2023-02-28T19:08:44;5.63;;;4.60;;
14316;SDS011;7242;50.858;6.586;2023-02-28T19:11:46;7.80;;;4.47;;
14316;SDS011;7242;50.858;6.586;2023-02-28T19:14:47;5.97;;;4.17;;
14316;SDS011;7242;50.858;6.586;2023-02-28T19:17:48;5.00;;;4.40;;
14316;SDS011;7242;50.858;6.586;2023-02-28T19:20:49;4.80;;;4.30;;
14316;SDS011;7242;50.858;6.586;2023-02-28T19:23:50;5.10;;;4.53;;
14316;SDS011;7242;50.858;6.586;2023-02-28T19:26:51;5.87;;;4.43;;
14316;SDS011;7242;50.858;6.586;2023-02-28T19:29:52;5.87;;;4.70;;
14316;SDS011;7242;50.858;6.586;2023-02-28T19:32:54;5.47;;;4.80;;
14316;SDS011;7242;50.858;6.586;2023-02-28T19:35:58;5.97;;;4.70;;
14316;SDS011;7242;50.858;6.586;2023-02-28T19:39:00;6.63;;;4.63;;
14316;SDS011;7242;50.858;6.586;2023-02-28T19:42:01;5.63;;;4.70;;
14316;SDS011;7242;50.858;6.586;2023-02-28T19:45:02;5.60;;;5.10;;
14316;SDS011;7242;50.858;6.586;2023-02-28T19:48:04;6.83;;;4.73;;
14316;SDS011;7242;50.858;6.586;2023-02-28T19:51:07;6.27;;;4.97;;
14316;SDS011;7242;50.858;6.586;2023-02-28T19:54:09;6.27;;;4.83;;
14316;SDS011;7242;50.858;6.586;2023-02-28T19:57:10;5.20;;;4.70;;
14316;SDS011;7242;50.858;6.586;2023-02-28T20:00:13;6.73;;;4.87;;
14316;SDS011;7242;50.858;6.586;2023-02-28T20:03:15;6.17;;;4.90;;
14316;SDS011;7242;50.858;6.586;2023-02-28T20:06:17;6.20;;;4.87;;
14316;SDS011;7242;50.858;6.586;2023-02-28T20:09:18;6.20;;;5.00;;
14316;SDS011;7242;50.858;6.586;2023-02-28T20:12:22;5.67;;;5.00;;
14316;SDS011;7242;50.858;6.586;2023-02-28T20:15:23;5.23;;;4.60;;
14316;SDS011;7242;50.858;6.586;2023-02-28T20:18:24;5.97;;;5.20;;
14316;SDS011;7242;50.858;6.586;2023-02-28T20:21:25;7.53;;;5.27;;
14316;SDS011;7242;50.858;6.586;2023-02-28T20:24:26;5.00;;;4.50;;
14316;SDS011;7242;50.858;6.586;2023-02-28T20:27:27;6.97;;;5.50;;
14316;SDS011;7242;50.858;6.586;2023-02-28T20:30:28;8.93;;;6.90;;
14316;SDS011;7242;50.858;6.586;2023-02-28T20:33:29;6.70;;;5.10;;
14316;SDS011;7242;50.858;6.586;2023-02-28T20:36:30;6.03;;;5.00;;
14316;SDS011;7242;50.858;6.586;2023-02-28T20:39:31;6.50;;;5.80;;
14316;SDS011;7242;50.858;6.586;2023-02-28T20:42:32;5.83;;;5.23;;